Hubbard Woods, Illinois
Current Conditions -  °F | °C
As of 2:52 AM on Saturday 25 Oct 2014 (Local Time) from KPWK Reporting Station
Overcast Overcast  
Wind Chill: 59°   Ceiling: 1300
Heat Index: 59°   Visibility: 10mi
Dew Point: 50°   Wind: 5mph
Humidity: 72%   Direction: 230°SW
Pressure: 29.9"   Gusts: NA
Location:  42.1029°N, 87.7571°W
Report Text: KPWK 250752Z AUTO 23004KT 10SM OVC013 15/10 A2990 RMK AO2 SLP123 T01500100
Loading
Personal Weather Stations






























Interactive Weather Map
Tropical Storm Tracking
New forecast layout! Learn more

10-Day Weather Forecast

Advertisements
Track Severe Weather on mobile